sensor_id;sensor_type;location;lat;lon;timestamp;pressure;altitude;pressure_sealevel;temperature;humidity
13934;BME280;7039;52.168;9.866;2023-07-30T00:00:26;99829.41;;;20.34;74.98
13934;BME280;7039;52.168;9.866;2023-07-30T00:02:52;99830.63;;;20.39;75.18
13934;BME280;7039;52.168;9.866;2023-07-30T00:05:19;99826.63;;;20.35;74.92
13934;BME280;7039;52.168;9.866;2023-07-30T00:07:45;99818.59;;;20.27;75.32
13934;BME280;7039;52.168;9.866;2023-07-30T00:10:12;99824.34;;;19.96;76.43
13934;BME280;7039;52.168;9.866;2023-07-30T00:12:40;99830.69;;;20.03;76.41
13934;BME280;7039;52.168;9.866;2023-07-30T00:15:07;99832.69;;;19.84;76.99
13934;BME280;7039;52.168;9.866;2023-07-30T00:17:34;99844.75;;;20.04;76.65
13934;BME280;7039;52.168;9.866;2023-07-30T00:20:00;99840.00;;;20.08;76.20
13934;BME280;7039;52.168;9.866;2023-07-30T00:22:28;99840.03;;;20.16;75.90
13934;BME280;7039;52.168;9.866;2023-07-30T00:24:54;99838.41;;;20.15;75.74
13934;BME280;7039;52.168;9.866;2023-07-30T00:27:20;99836.88;;;20.12;75.79
13934;BME280;7039;52.168;9.866;2023-07-30T00:29:48;99843.47;;;20.08;76.51
13934;BME280;7039;52.168;9.866;2023-07-30T00:32:15;99834.41;;;19.93;76.41
13934;BME280;7039;52.168;9.866;2023-07-30T00:34:42;99839.94;;;19.81;77.18
13934;BME280;7039;52.168;9.866;2023-07-30T00:37:09;99829.53;;;19.52;78.30
13934;BME280;7039;52.168;9.866;2023-07-30T00:39:35;99845.47;;;19.70;77.84
13934;BME280;7039;52.168;9.866;2023-07-30T00:42:02;99837.66;;;19.69;77.80
13934;BME280;7039;52.168;9.866;2023-07-30T00:44:28;99843.81;;;19.59;78.24
13934;BME280;7039;52.168;9.866;2023-07-30T00:46:56;99858.22;;;19.75;77.81
13934;BME280;7039;52.168;9.866;2023-07-30T00:49:23;99857.88;;;19.70;78.30
13934;BME280;7039;52.168;9.866;2023-07-30T00:51:49;99858.88;;;19.59;78.80
13934;BME280;7039;52.168;9.866;2023-07-30T00:54:16;99856.50;;;19.84;78.17
13934;BME280;7039;52.168;9.866;2023-07-30T00:56:49;99867.53;;;19.97;77.66
13934;BME280;7039;52.168;9.866;2023-07-30T00:59:16;99857.50;;;19.83;78.04
13934;BME280;7039;52.168;9.866;2023-07-30T01:01:45;99865.94;;;20.04;77.43
13934;BME280;7039;52.168;9.866;2023-07-30T01:04:14;99874.88;;;20.03;77.42
13934;BME280;7039;52.168;9.866;2023-07-30T01:06:41;99865.81;;;19.88;78.20
13934;BME280;7039;52.168;9.866;2023-07-30T01:09:08;99866.63;;;19.88;78.00
13934;BME280;7039;52.168;9.866;2023-07-30T01:11:35;99875.38;;;19.89;78.67
13934;BME280;7039;52.168;9.866;2023-07-30T01:14:03;99873.28;;;19.74;79.01
13934;BME280;7039;52.168;9.866;2023-07-30T01:16:31;99868.78;;;19.57;80.38
13934;BME280;7039;52.168;9.866;2023-07-30T01:18:57;99869.28;;;19.70;80.78
13934;BME280;7039;52.168;9.866;2023-07-30T01:21:31;99874.16;;;19.65;81.73
13934;BME280;7039;52.168;9.866;2023-07-30T01:23:57;99876.78;;;19.47;81.89
13934;BME280;7039;52.168;9.866;2023-07-30T01:26:27;99887.38;;;19.65;81.60
13934;BME280;7039;52.168;9.866;2023-07-30T01:28:58;99898.84;;;19.84;81.01
13934;BME280;7039;52.168;9.866;2023-07-30T01:31:27;99897.34;;;19.81;80.34
13934;BME280;7039;52.168;9.866;2023-07-30T01:33:56;99902.78;;;19.97;79.28
13934;BME280;7039;52.168;9.866;2023-07-30T01:36:24;99896.44;;;19.90;79.36
13934;BME280;7039;52.168;9.866;2023-07-30T01:38:53;99895.50;;;19.81;79.03
13934;BME280;7039;52.168;9.866;2023-07-30T01:41:19;99900.81;;;19.81;78.69
13934;BME280;7039;52.168;9.866;2023-07-30T01:43:46;99895.50;;;19.81;79.10
13934;BME280;7039;52.168;9.866;2023-07-30T01:46:12;99892.13;;;19.71;78.83
13934;BME280;7039;52.168;9.866;2023-07-30T01:48:39;99887.28;;;19.57;79.27
13934;BME280;7039;52.168;9.866;2023-07-30T01:51:05;99899.38;;;19.59;79.48
13934;BME280;7039;52.168;9.866;2023-07-30T01:53:31;99891.97;;;19.45;79.27
13934;BME280;7039;52.168;9.866;2023-07-30T01:55:59;99898.41;;;19.60;79.12
13934;BME280;7039;52.168;9.866;2023-07-30T01:58:26;99909.81;;;19.61;78.69
13934;BME280;7039;52.168;9.866;2023-07-30T02:00:52;99899.81;;;19.55;78.88
13934;BME280;7039;52.168;9.866;2023-07-30T02:03:19;99901.88;;;19.61;78.36
13934;BME280;7039;52.168;9.866;2023-07-30T02:05:45;99910.84;;;19.50;78.86
13934;BME280;7039;52.168;9.866;2023-07-30T02:08:11;99901.78;;;19.35;79.10
13934;BME280;7039;52.168;9.866;2023-07-30T02:10:41;99909.09;;;19.41;78.98
13934;BME280;7039;52.168;9.866;2023-07-30T02:13:09;99912.19;;;19.36;79.04
13934;BME280;7039;52.168;9.866;2023-07-30T02:15:39;99913.00;;;19.37;79.25
13934;BME280;7039;52.168;9.866;2023-07-30T02:18:06;99919.28;;;19.36;78.92
13934;BME280;7039;52.168;9.866;2023-07-30T02:20:35;99915.53;;;19.38;78.88
13934;BME280;7039;52.168;9.866;2023-07-30T02:23:01;99907.72;;;19.37;78.75
13934;BME280;7039;52.168;9.866;2023-07-30T02:25:28;99916.97;;;19.33;78.96
13934;BME280;7039;52.168;9.866;2023-07-30T02:27:54;99910.19;;;19.20;79.37
13934;BME280;7039;52.168;9.866;2023-07-30T02:30:22;99914.88;;;19.27;79.40
13934;BME280;7039;52.168;9.866;2023-07-30T02:32:48;99917.84;;;19.14;80.04
13934;BME280;7039;52.168;9.866;2023-07-30T02:35:15;99920.38;;;19.15;79.72
13934;BME280;7039;52.168;9.866;2023-07-30T02:37:41;99918.16;;;19.11;79.87
13934;BME280;7039;52.168;9.866;2023-07-30T02:40:09;99914.88;;;18.99;80.48
13934;BME280;7039;52.168;9.866;2023-07-30T02:42:36;99916.44;;;18.92;80.39
13934;BME280;7039;52.168;9.866;2023-07-30T02:45:03;99915.00;;;18.97;80.52
13934;BME280;7039;52.168;9.866;2023-07-30T02:47:31;99919.06;;;18.92;80.55
13934;BME280;7039;52.168;9.866;2023-07-30T02:49:58;99917.25;;;18.92;80.60
13934;BME280;7039;52.168;9.866;2023-07-30T02:52:24;99919.72;;;18.94;79.94
13934;BME280;7039;52.168;9.866;2023-07-30T02:54:51;99925.88;;;18.94;80.20
13934;BME280;7039;52.168;9.866;2023-07-30T02:57:17;99918.13;;;18.83;80.75
13934;BME280;7039;52.168;9.866;2023-07-30T02:59:44;99929.09;;;18.88;80.25
13934;BME280;7039;52.168;9.866;2023-07-30T03:02:10;99926.47;;;18.78;80.71
13934;BME280;7039;52.168;9.866;2023-07-30T03:04:38;99929.53;;;18.74;80.80
13934;BME280;7039;52.168;9.866;2023-07-30T03:07:05;99921.19;;;18.59;81.18
13934;BME280;7039;52.168;9.866;2023-07-30T03:09:32;99933.44;;;18.60;80.90
13934;BME280;7039;52.168;9.866;2023-07-30T03:11:59;99927.19;;;18.51;80.39
13934;BME280;7039;52.168;9.866;2023-07-30T03:14:25;99920.28;;;18.31;80.92
13934;BME280;7039;52.168;9.866;2023-07-30T03:16:52;99915.84;;;18.22;81.45
13934;BME280;7039;52.168;9.866;2023-07-30T03:19:18;99922.66;;;18.14;81.29
13934;BME280;7039;52.168;9.866;2023-07-30T03:21:46;99927.06;;;18.04;82.30
13934;BME280;7039;52.168;9.866;2023-07-30T03:24:12;99924.16;;;17.98;82.40
13934;BME280;7039;52.168;9.866;2023-07-30T03:26:39;99932.06;;;17.98;82.70
13934;BME280;7039;52.168;9.866;2023-07-30T03:29:05;99926.38;;;17.92;83.04
13934;BME280;7039;52.168;9.866;2023-07-30T03:31:32;99929.66;;;17.75;83.83
13934;BME280;7039;52.168;9.866;2023-07-30T03:33:58;99931.50;;;17.84;83.62
13934;BME280;7039;52.168;9.866;2023-07-30T03:36:25;99925.47;;;17.72;84.22
13934;BME280;7039;52.168;9.866;2023-07-30T03:38:52;99932.03;;;17.78;84.19
13934;BME280;7039;52.168;9.866;2023-07-30T03:41:19;99945.97;;;17.90;83.84
13934;BME280;7039;52.168;9.866;2023-07-30T03:43:45;99940.53;;;17.91;83.41
13934;BME280;7039;52.168;9.866;2023-07-30T03:46:12;99945.56;;;17.94;82.90
13934;BME280;7039;52.168;9.866;2023-07-30T03:48:38;99940.41;;;18.03;82.52
13934;BME280;7039;52.168;9.866;2023-07-30T03:51:05;99941.09;;;17.85;82.99
13934;BME280;7039;52.168;9.866;2023-07-30T03:53:32;99958.47;;;17.98;82.42
13934;BME280;7039;52.168;9.866;2023-07-30T03:56:00;99945.75;;;17.72;83.18
13934;BME280;7039;52.168;9.866;2023-07-30T03:58:27;99943.13;;;17.72;83.19
13934;BME280;7039;52.168;9.866;2023-07-30T04:00:56;99950.63;;;17.77;82.89
13934;BME280;7039;52.168;9.866;2023-07-30T04:03:23;99952.59;;;17.84;82.98
13934;BME280;7039;52.168;9.866;2023-07-30T04:05:49;99949.91;;;17.74;82.86
13934;BME280;7039;52.168;9.866;2023-07-30T04:08:16;99955.41;;;17.83;82.58
13934;BME280;7039;52.168;9.866;2023-07-30T04:10:42;99963.59;;;18.09;82.01
13934;BME280;7039;52.168;9.866;2023-07-30T04:13:10;99963.91;;;18.15;81.46
13934;BME280;7039;52.168;9.866;2023-07-30T04:15:37;99968.19;;;18.16;81.38
13934;BME280;7039;52.168;9.866;2023-07-30T04:18:03;99973.78;;;18.33;80.95
13934;BME280;7039;52.168;9.866;2023-07-30T04:20:29;99968.06;;;18.38;80.39
13934;BME280;7039;52.168;9.866;2023-07-30T04:22:56;99963.19;;;18.43;80.25
13934;BME280;7039;52.168;9.866;2023-07-30T04:25:23;99971.41;;;18.49;79.85
13934;BME280;7039;52.168;9.866;2023-07-30T04:27:49;99976.41;;;18.33;80.15
13934;BME280;7039;52.168;9.866;2023-07-30T04:30:17;99982.25;;;18.56;79.96
13934;BME280;7039;52.168;9.866;2023-07-30T04:32:44;99971.94;;;18.43;79.87
13934;BME280;7039;52.168;9.866;2023-07-30T04:35:10;99967.50;;;18.53;79.96
13934;BME280;7039;52.168;9.866;2023-07-30T04:37:37;99971.94;;;18.43;80.44
13934;BME280;7039;52.168;9.866;2023-07-30T04:40:04;99974.19;;;18.38;80.79
13934;BME280;7039;52.168;9.866;2023-07-30T04:42:31;99986.69;;;18.36;81.30
13934;BME280;7039;52.168;9.866;2023-07-30T04:44:57;99980.44;;;18.47;80.98
13934;BME280;7039;52.168;9.866;2023-07-30T04:47:25;99976.28;;;18.44;81.45
13934;BME280;7039;52.168;9.866;2023-07-30T04:49:51;99973.75;;;18.43;82.10
13934;BME280;7039;52.168;9.866;2023-07-30T04:52:18;99976.00;;;18.38;82.58
13934;BME280;7039;52.168;9.866;2023-07-30T04:54:45;99978.50;;;18.49;82.64
13934;BME280;7039;52.168;9.866;2023-07-30T04:57:11;99974.59;;;18.33;83.39
13934;BME280;7039;52.168;9.866;2023-07-30T04:59:38;99981.81;;;18.31;83.60
13934;BME280;7039;52.168;9.866;2023-07-30T05:02:05;99986.81;;;18.64;82.41
13934;BME280;7039;52.168;9.866;2023-07-30T05:04:32;99986.25;;;18.70;82.47
13934;BME280;7039;52.168;9.866;2023-07-30T05:06:59;99976.41;;;18.62;82.93
13934;BME280;7039;52.168;9.866;2023-07-30T05:09:25;99974.84;;;18.60;83.17
13934;BME280;7039;52.168;9.866;2023-07-30T05:11:52;99981.41;;;18.55;83.73
13934;BME280;7039;52.168;9.866;2023-07-30T05:14:18;99975.81;;;18.68;83.25
13934;BME280;7039;52.168;9.866;2023-07-30T05:16:45;99969.84;;;18.56;84.26
13934;BME280;7039;52.168;9.866;2023-07-30T05:19:11;99972.38;;;18.58;83.65
13934;BME280;7039;52.168;9.866;2023-07-30T05:21:39;99976.66;;;18.69;83.41
13934;BME280;7039;52.168;9.866;2023-07-30T05:24:07;99974.16;;;18.48;83.17
13934;BME280;7039;52.168;9.866;2023-07-30T05:26:33;99986.00;;;18.53;83.18
13934;BME280;7039;52.168;9.866;2023-07-30T05:29:00;99976.28;;;18.44;83.76
13934;BME280;7039;52.168;9.866;2023-07-30T05:31:26;99977.63;;;18.77;82.11
13934;BME280;7039;52.168;9.866;2023-07-30T05:33:53;99973.34;;;18.47;82.29
13934;BME280;7039;52.168;9.866;2023-07-30T05:36:20;99980.13;;;18.60;81.73
13934;BME280;7039;52.168;9.866;2023-07-30T05:38:49;99989.03;;;18.78;81.09
13934;BME280;7039;52.168;9.866;2023-07-30T05:41:15;99983.63;;;18.60;81.66
13934;BME280;7039;52.168;9.866;2023-07-30T05:43:42;99979.88;;;18.63;81.17
13934;BME280;7039;52.168;9.866;2023-07-30T05:46:08;99973.34;;;18.67;80.80
13934;BME280;7039;52.168;9.866;2023-07-30T05:48:34;99972.78;;;18.44;81.22
13934;BME280;7039;52.168;9.866;2023-07-30T05:51:01;99969.03;;;18.36;80.79
13934;BME280;7039;52.168;9.866;2023-07-30T05:53:27;99973.75;;;18.62;80.02
13934;BME280;7039;52.168;9.866;2023-07-30T05:55:55;99980.16;;;18.79;79.82
13934;BME280;7039;52.168;9.866;2023-07-30T05:58:22;99981.25;;;18.67;79.46
13934;BME280;7039;52.168;9.866;2023-07-30T06:00:48;99975.94;;;18.96;78.74
13934;BME280;7039;52.168;9.866;2023-07-30T06:03:15;99972.19;;;18.89;78.21
13934;BME280;7039;52.168;9.866;2023-07-30T06:05:41;99973.03;;;18.89;77.57
13934;BME280;7039;52.168;9.866;2023-07-30T06:08:08;99981.47;;;19.03;77.30
13934;BME280;7039;52.168;9.866;2023-07-30T06:10:35;99979.53;;;19.05;76.54
13934;BME280;7039;52.168;9.866;2023-07-30T06:13:04;99973.97;;;18.98;75.96
13934;BME280;7039;52.168;9.866;2023-07-30T06:15:30;99972.50;;;18.86;75.56
13934;BME280;7039;52.168;9.866;2023-07-30T06:17:57;99972.75;;;18.92;76.12
13934;BME280;7039;52.168;9.866;2023-07-30T06:20:23;99978.09;;;19.20;75.30
13934;BME280;7039;52.168;9.866;2023-07-30T06:22:50;99965.75;;;19.11;74.81
13934;BME280;7039;52.168;9.866;2023-07-30T06:25:16;99979.38;;;19.06;74.87
13934;BME280;7039;52.168;9.866;2023-07-30T06:27:43;99976.72;;;19.16;74.13
13934;BME280;7039;52.168;9.866;2023-07-30T06:30:11;99984.59;;;19.35;73.75
13934;BME280;7039;52.168;9.866;2023-07-30T06:32:38;99982.72;;;19.46;73.30
13934;BME280;7039;52.168;9.866;2023-07-30T06:35:06;99975.38;;;19.39;73.23
13934;BME280;7039;52.168;9.866;2023-07-30T06:37:33;99982.13;;;19.52;72.75
13934;BME280;7039;52.168;9.866;2023-07-30T06:39:59;99979.34;;;19.53;70.94
13934;BME280;7039;52.168;9.866;2023-07-30T06:42:29;99978.13;;;19.48;70.51
13934;BME280;7039;52.168;9.866;2023-07-30T06:44:55;99977.66;;;19.52;71.39
13934;BME280;7039;52.168;9.866;2023-07-30T06:47:23;99989.13;;;19.43;71.06
13934;BME280;7039;52.168;9.866;2023-07-30T06:49:49;99983.78;;;19.53;70.60
13934;BME280;7039;52.168;9.866;2023-07-30T06:52:16;99991.91;;;19.79;70.22
13934;BME280;7039;52.168;9.866;2023-07-30T06:54:42;99994.31;;;19.72;69.63
13934;BME280;7039;52.168;9.866;2023-07-30T06:57:09;99996.88;;;19.54;69.73
13934;BME280;7039;52.168;9.866;2023-07-30T06:59:35;99990.38;;;19.49;69.51
13934;BME280;7039;52.168;9.866;2023-07-30T07:02:02;99993.97;;;19.48;70.37
13934;BME280;7039;52.168;9.866;2023-07-30T07:04:31;100005.25;;;19.87;70.55
13934;BME280;7039;52.168;9.866;2023-07-30T07:06:58;100010.56;;;19.77;69.82
13934;BME280;7039;52.168;9.866;2023-07-30T07:09:24;100015.09;;;19.95;69.24
13934;BME280;7039;52.168;9.866;2023-07-30T07:11:51;100013.66;;;19.73;70.48
13934;BME280;7039;52.168;9.866;2023-07-30T07:14:17;100024.88;;;20.12;69.54
13934;BME280;7039;52.168;9.866;2023-07-30T07:16:44;100028.16;;;19.69;68.96
13934;BME280;7039;52.168;9.866;2023-07-30T07:19:10;100021.06;;;19.97;69.36
13934;BME280;7039;52.168;9.866;2023-07-30T07:21:38;100025.56;;;20.14;68.00
13934;BME280;7039;52.168;9.866;2023-07-30T07:24:05;100035.00;;;19.99;68.41
13934;BME280;7039;52.168;9.866;2023-07-30T07:26:31;100030.84;;;20.32;67.91
13934;BME280;7039;52.168;9.866;2023-07-30T07:28:58;100042.00;;;20.36;66.49
13934;BME280;7039;52.168;9.866;2023-07-30T07:31:24;100031.94;;;20.39;65.99
13934;BME280;7039;52.168;9.866;2023-07-30T07:33:50;100021.41;;;20.30;64.76
13934;BME280;7039;52.168;9.866;2023-07-30T07:36:17;100022.16;;;20.22;64.51
13934;BME280;7039;52.168;9.866;2023-07-30T07:38:45;100033.13;;;20.45;63.83
13934;BME280;7039;52.168;9.866;2023-07-30T07:41:14;100039.22;;;20.55;63.96
13934;BME280;7039;52.168;9.866;2023-07-30T07:43:41;100029.69;;;20.62;64.07
13934;BME280;7039;52.168;9.866;2023-07-30T07:46:08;100028.22;;;20.50;63.17
13934;BME280;7039;52.168;9.866;2023-07-30T07:48:38;100017.78;;;20.31;64.50
13934;BME280;7039;52.168;9.866;2023-07-30T07:51:05;100017.81;;;20.21;64.51
13934;BME280;7039;52.168;9.866;2023-07-30T07:53:32;100007.06;;;20.05;63.91
13934;BME280;7039;52.168;9.866;2023-07-30T07:55:59;100015.63;;;20.16;64.15
13934;BME280;7039;52.168;9.866;2023-07-30T07:58:26;100006.41;;;20.20;64.13
13934;BME280;7039;52.168;9.866;2023-07-30T08:00:54;100016.03;;;20.39;63.82
13934;BME280;7039;52.168;9.866;2023-07-30T08:03:20;100015.13;;;20.49;63.28
13934;BME280;7039;52.168;9.866;2023-07-30T08:05:47;100018.63;;;20.67;64.20
13934;BME280;7039;52.168;9.866;2023-07-30T08:08:14;100024.13;;;21.18;63.90
13934;BME280;7039;52.168;9.866;2023-07-30T08:10:40;100022.75;;;21.14;62.95
13934;BME280;7039;52.168;9.866;2023-07-30T08:13:10;100023.47;;;21.42;62.23
13934;BME280;7039;52.168;9.866;2023-07-30T08:15:37;100016.97;;;21.18;59.77
13934;BME280;7039;52.168;9.866;2023-07-30T08:18:03;100019.84;;;21.51;60.82
13934;BME280;7039;52.168;9.866;2023-07-30T08:20:30;100023.69;;;21.57;60.44
13934;BME280;7039;52.168;9.866;2023-07-30T08:22:56;100022.25;;;21.71;60.77
13934;BME280;7039;52.168;9.866;2023-07-30T08:25:23;100017.41;;;21.05;61.26
13934;BME280;7039;52.168;9.866;2023-07-30T08:27:49;100011.53;;;21.20;60.38
13934;BME280;7039;52.168;9.866;2023-07-30T08:30:17;100014.28;;;21.36;60.93
13934;BME280;7039;52.168;9.866;2023-07-30T08:32:43;100008.50;;;21.75;59.51
13934;BME280;7039;52.168;9.866;2023-07-30T08:35:10;100004.63;;;22.12;59.98
13934;BME280;7039;52.168;9.866;2023-07-30T08:37:37;100006.69;;;22.35;58.39
13934;BME280;7039;52.168;9.866;2023-07-30T08:40:04;100005.28;;;22.06;58.33
13934;BME280;7039;52.168;9.866;2023-07-30T08:42:31;100003.38;;;21.82;58.82
13934;BME280;7039;52.168;9.866;2023-07-30T08:44:59;100009.88;;;21.87;58.23
13934;BME280;7039;52.168;9.866;2023-07-30T08:47:27;100005.94;;;21.57;58.85
13934;BME280;7039;52.168;9.866;2023-07-30T08:49:53;100004.28;;;21.30;59.70
13934;BME280;7039;52.168;9.866;2023-07-30T08:52:20;99997.91;;;21.15;59.21
13934;BME280;7039;52.168;9.866;2023-07-30T08:54:49;100003.16;;;21.33;59.34
13934;BME280;7039;52.168;9.866;2023-07-30T08:57:17;100004.19;;;21.74;58.67
13934;BME280;7039;52.168;9.866;2023-07-30T08:59:49;100004.09;;;21.92;59.99
13934;BME280;7039;52.168;9.866;2023-07-30T09:02:19;99999.13;;;21.55;59.04
13934;BME280;7039;52.168;9.866;2023-07-30T09:04:52;99993.75;;;21.89;59.24
13934;BME280;7039;52.168;9.866;2023-07-30T09:07:19;100002.63;;;22.14;59.44
13934;BME280;7039;52.168;9.866;2023-07-30T09:09:46;100010.19;;;22.35;57.71
13934;BME280;7039;52.168;9.866;2023-07-30T09:12:13;100003.09;;;22.09;57.66
13934;BME280;7039;52.168;9.866;2023-07-30T09:14:40;100002.69;;;21.80;58.57
13934;BME280;7039;52.168;9.866;2023-07-30T09:17:10;100001.69;;;21.73;59.60
13934;BME280;7039;52.168;9.866;2023-07-30T09:19:36;100006.94;;;21.56;59.64
13934;BME280;7039;52.168;9.866;2023-07-30T09:22:05;99996.78;;;21.25;60.26
13934;BME280;7039;52.168;9.866;2023-07-30T09:24:32;100002.91;;;21.44;59.80
13934;BME280;7039;52.168;9.866;2023-07-30T09:27:01;100013.84;;;21.83;60.27
13934;BME280;7039;52.168;9.866;2023-07-30T09:29:28;100015.16;;;21.79;59.07
13934;BME280;7039;52.168;9.866;2023-07-30T09:31:55;100014.75;;;21.58;60.34
13934;BME280;7039;52.168;9.866;2023-07-30T09:34:23;100019.00;;;21.85;59.66
13934;BME280;7039;52.168;9.866;2023-07-30T09:36:50;100031.75;;;21.81;59.36
13934;BME280;7039;52.168;9.866;2023-07-30T09:39:20;100021.94;;;21.74;60.50
13934;BME280;7039;52.168;9.866;2023-07-30T09:41:48;100027.81;;;21.94;59.56
13934;BME280;7039;52.168;9.866;2023-07-30T09:44:16;100024.69;;;22.06;59.20
13934;BME280;7039;52.168;9.866;2023-07-30T09:46:43;100024.31;;;21.93;59.38
13934;BME280;7039;52.168;9.866;2023-07-30T09:49:10;100033.66;;;22.05;59.50
13934;BME280;7039;52.168;9.866;2023-07-30T09:51:37;100040.41;;;22.42;59.35
13934;BME280;7039;52.168;9.866;2023-07-30T09:54:05;100041.25;;;22.59;59.16
13934;BME280;7039;52.168;9.866;2023-07-30T09:56:33;100033.78;;;22.79;57.62
13934;BME280;7039;52.168;9.866;2023-07-30T09:59:00;100048.22;;;23.09;58.04
13934;BME280;7039;52.168;9.866;2023-07-30T10:01:28;100026.47;;;22.48;58.66
13934;BME280;7039;52.168;9.866;2023-07-30T10:03:57;100038.44;;;22.61;58.55
13934;BME280;7039;52.168;9.866;2023-07-30T10:06:27;100042.41;;;22.48;58.58
13934;BME280;7039;52.168;9.866;2023-07-30T10:08:57;100043.38;;;21.80;60.30
13934;BME280;7039;52.168;9.866;2023-07-30T10:11:27;100042.25;;;21.57;60.97
13934;BME280;7039;52.168;9.866;2023-07-30T10:13:55;100036.72;;;21.42;62.17
13934;BME280;7039;52.168;9.866;2023-07-30T10:16:25;100044.34;;;21.79;61.40
13934;BME280;7039;52.168;9.866;2023-07-30T10:18:55;100042.31;;;21.65;61.39
13934;BME280;7039;52.168;9.866;2023-07-30T10:21:24;100032.75;;;21.20;61.06
13934;BME280;7039;52.168;9.866;2023-07-30T10:23:58;100048.63;;;21.38;61.95
13934;BME280;7039;52.168;9.866;2023-07-30T10:26:26;100043.88;;;21.50;61.83
13934;BME280;7039;52.168;9.866;2023-07-30T10:29:10;100058.84;;;21.51;61.34
13934;BME280;7039;52.168;9.866;2023-07-30T10:31:38;100060.78;;;22.25;59.52
13934;BME280;7039;52.168;9.866;2023-07-30T10:34:06;100059.38;;;21.97;60.23
13934;BME280;7039;52.168;9.866;2023-07-30T10:36:38;100061.63;;;22.26;59.60
13934;BME280;7039;52.168;9.866;2023-07-30T10:39:14;100068.19;;;22.14;60.08
13934;BME280;7039;52.168;9.866;2023-07-30T10:41:43;100069.69;;;22.16;59.61
13934;BME280;7039;52.168;9.866;2023-07-30T10:44:22;100074.09;;;21.91;60.93
13934;BME280;7039;52.168;9.866;2023-07-30T10:46:49;100060.09;;;21.73;61.13
13934;BME280;7039;52.168;9.866;2023-07-30T10:49:15;100068.31;;;21.61;61.42
13934;BME280;7039;52.168;9.866;2023-07-30T10:51:42;100068.91;;;21.81;61.45
13934;BME280;7039;52.168;9.866;2023-07-30T10:54:08;100073.81;;;22.02;61.49
13934;BME280;7039;52.168;9.866;2023-07-30T10:56:36;100067.97;;;21.56;62.21
13934;BME280;7039;52.168;9.866;2023-07-30T10:59:04;100079.69;;;21.72;62.18
13934;BME280;7039;52.168;9.866;2023-07-30T11:01:36;100089.25;;;21.99;61.95
13934;BME280;7039;52.168;9.866;2023-07-30T11:04:05;100075.28;;;21.97;61.64
13934;BME280;7039;52.168;9.866;2023-07-30T11:06:32;100075.69;;;22.10;61.68
13934;BME280;7039;52.168;9.866;2023-07-30T11:08:58;100074.81;;;22.01;61.81
13934;BME280;7039;52.168;9.866;2023-07-30T11:11:25;100080.75;;;22.38;61.51
13934;BME280;7039;52.168;9.866;2023-07-30T11:13:51;100066.59;;;21.78;61.90
13934;BME280;7039;52.168;9.866;2023-07-30T11:16:18;100072.19;;;21.41;62.62
13934;BME280;7039;52.168;9.866;2023-07-30T11:18:46;100083.09;;;21.64;62.63
13934;BME280;7039;52.168;9.866;2023-07-30T11:21:14;100070.22;;;21.69;63.31
13934;BME280;7039;52.168;9.866;2023-07-30T11:23:43;100070.03;;;21.71;62.98
13934;BME280;7039;52.168;9.866;2023-07-30T11:26:13;100070.00;;;21.62;62.87
13934;BME280;7039;52.168;9.866;2023-07-30T11:28:40;100061.75;;;21.74;62.67
13934;BME280;7039;52.168;9.866;2023-07-30T11:31:08;100072.50;;;22.06;62.33
13934;BME280;7039;52.168;9.866;2023-07-30T11:33:36;100057.34;;;21.56;62.21
13934;BME280;7039;52.168;9.866;2023-07-30T11:36:04;100071.16;;;21.60;62.66
13934;BME280;7039;52.168;9.866;2023-07-30T11:38:32;100061.38;;;21.60;61.82
13934;BME280;7039;52.168;9.866;2023-07-30T11:40:59;100064.59;;;21.46;62.71
13934;BME280;7039;52.168;9.866;2023-07-30T11:43:26;100067.63;;;21.94;62.18
13934;BME280;7039;52.168;9.866;2023-07-30T11:46:12;100070.31;;;22.02;61.76
13934;BME280;7039;52.168;9.866;2023-07-30T11:48:40;100081.91;;;21.93;61.70
13934;BME280;7039;52.168;9.866;2023-07-30T11:51:18;100078.75;;;22.31;61.21
13934;BME280;7039;52.168;9.866;2023-07-30T11:53:46;100075.53;;;22.20;61.37
13934;BME280;7039;52.168;9.866;2023-07-30T11:56:19;100073.28;;;22.41;60.76
13934;BME280;7039;52.168;9.866;2023-07-30T11:58:47;100070.81;;;21.97;61.89
13934;BME280;7039;52.168;9.866;2023-07-30T12:01:13;100089.75;;;22.45;61.10
13934;BME280;7039;52.168;9.866;2023-07-30T12:03:40;100078.78;;;22.48;61.37
13934;BME280;7039;52.168;9.866;2023-07-30T12:06:09;100079.00;;;23.12;59.07
13934;BME280;7039;52.168;9.866;2023-07-30T12:08:35;100077.63;;;23.41;58.42
13934;BME280;7039;52.168;9.866;2023-07-30T12:11:03;100080.75;;;23.52;57.42
13934;BME280;7039;52.168;9.866;2023-07-30T12:13:30;100069.50;;;23.26;58.06
13934;BME280;7039;52.168;9.866;2023-07-30T12:15:57;100064.81;;;23.44;55.62
13934;BME280;7039;52.168;9.866;2023-07-30T12:18:24;100073.09;;;23.49;57.94
13934;BME280;7039;52.168;9.866;2023-07-30T12:20:52;100074.72;;;23.75;57.34
13934;BME280;7039;52.168;9.866;2023-07-30T12:23:20;100066.19;;;23.16;58.26
13934;BME280;7039;52.168;9.866;2023-07-30T12:25:47;100075.03;;;23.08;57.91
13934;BME280;7039;52.168;9.866;2023-07-30T12:28:13;100068.38;;;23.04;57.94
13934;BME280;7039;52.168;9.866;2023-07-30T12:30:40;100066.97;;;23.49;58.28
13934;BME280;7039;52.168;9.866;2023-07-30T12:33:06;100073.34;;;23.23;57.89
13934;BME280;7039;52.168;9.866;2023-07-30T12:35:33;100069.31;;;23.27;57.03
13934;BME280;7039;52.168;9.866;2023-07-30T12:38:00;100070.25;;;23.59;56.32
13934;BME280;7039;52.168;9.866;2023-07-30T12:40:28;100065.09;;;23.58;56.02
13934;BME280;7039;52.168;9.866;2023-07-30T12:42:59;100073.25;;;24.12;55.14
13934;BME280;7039;52.168;9.866;2023-07-30T12:45:26;100065.13;;;24.83;54.60
13934;BME280;7039;52.168;9.866;2023-07-30T12:47:52;100064.47;;;24.80;54.41
13934;BME280;7039;52.168;9.866;2023-07-30T12:50:19;100046.03;;;25.09;52.48
13934;BME280;7039;52.168;9.866;2023-07-30T12:52:45;100031.28;;;24.60;51.57
13934;BME280;7039;52.168;9.866;2023-07-30T12:55:12;100036.47;;;25.14;51.24
13934;BME280;7039;52.168;9.866;2023-07-30T12:57:39;100043.88;;;25.27;52.19
13934;BME280;7039;52.168;9.866;2023-07-30T13:00:06;100037.06;;;25.25;50.65
13934;BME280;7039;52.168;9.866;2023-07-30T13:02:34;100030.81;;;24.56;52.00
13934;BME280;7039;52.168;9.866;2023-07-30T13:05:01;100025.63;;;25.46;48.92